sensor_id;sensor_type;location;lat;lon;timestamp;P1;durP1;ratioP1;P2;durP2;ratioP2
70829;SDS011;58451;51.550;7.208;2023-02-03T00:00:17;22.50;;;9.10;;
70829;SDS011;58451;51.550;7.208;2023-02-03T00:01:49;21.50;;;10.40;;
70829;SDS011;58451;51.550;7.208;2023-02-03T00:03:21;25.20;;;11.90;;
70829;SDS011;58451;51.550;7.208;2023-02-03T00:04:53;30.60;;;12.70;;
70829;SDS011;58451;51.550;7.208;2023-02-03T00:06:25;19.60;;;8.70;;
70829;SDS011;58451;51.550;7.208;2023-02-03T00:07:57;22.70;;;10.80;;
70829;SDS011;58451;51.550;7.208;2023-02-03T00:09:29;22.00;;;9.60;;
70829;SDS011;58451;51.550;7.208;2023-02-03T00:11:01;23.70;;;11.20;;
70829;SDS011;58451;51.550;7.208;2023-02-03T00:12:33;23.90;;;11.20;;
70829;SDS011;58451;51.550;7.208;2023-02-03T00:14:05;24.40;;;11.60;;
70829;SDS011;58451;51.550;7.208;2023-02-03T00:15:38;21.30;;;9.60;;
70829;SDS011;58451;51.550;7.208;2023-02-03T00:17:10;29.10;;;10.10;;
70829;SDS011;58451;51.550;7.208;2023-02-03T00:18:41;24.70;;;10.80;;
70829;SDS011;58451;51.550;7.208;2023-02-03T00:20:14;20.90;;;9.40;;
70829;SDS011;58451;51.550;7.208;2023-02-03T00:21:46;25.00;;;11.20;;
70829;SDS011;58451;51.550;7.208;2023-02-03T00:23:18;22.70;;;9.90;;
70829;SDS011;58451;51.550;7.208;2023-02-03T00:24:50;22.20;;;9.70;;
70829;SDS011;58451;51.550;7.208;2023-02-03T00:26:21;24.50;;;10.50;;
70829;SDS011;58451;51.550;7.208;2023-02-03T00:27:56;22.70;;;10.50;;
70829;SDS011;58451;51.550;7.208;2023-02-03T00:29:28;19.30;;;8.50;;
70829;SDS011;58451;51.550;7.208;2023-02-03T00:31:00;19.10;;;9.20;;
70829;SDS011;58451;51.550;7.208;2023-02-03T00:32:31;20.50;;;10.00;;
70829;SDS011;58451;51.550;7.208;2023-02-03T00:34:03;27.30;;;11.00;;
70829;SDS011;58451;51.550;7.208;2023-02-03T00:35:38;17.40;;;8.90;;
70829;SDS011;58451;51.550;7.208;2023-02-03T00:37:13;21.20;;;8.80;;
70829;SDS011;58451;51.550;7.208;2023-02-03T00:38:46;21.60;;;10.30;;
70829;SDS011;58451;51.550;7.208;2023-02-03T00:40:20;24.00;;;11.10;;
70829;SDS011;58451;51.550;7.208;2023-02-03T00:41:54;21.80;;;10.60;;
70829;SDS011;58451;51.550;7.208;2023-02-03T00:43:26;22.70;;;9.90;;
70829;SDS011;58451;51.550;7.208;2023-02-03T00:44:58;21.90;;;9.60;;
70829;SDS011;58451;51.550;7.208;2023-02-03T00:46:32;19.00;;;8.10;;
70829;SDS011;58451;51.550;7.208;2023-02-03T00:48:07;21.20;;;9.50;;
70829;SDS011;58451;51.550;7.208;2023-02-03T00:49:39;22.90;;;10.10;;
70829;SDS011;58451;51.550;7.208;2023-02-03T00:51:11;19.40;;;8.80;;
70829;SDS011;58451;51.550;7.208;2023-02-03T00:52:42;22.70;;;10.90;;
70829;SDS011;58451;51.550;7.208;2023-02-03T00:54:15;22.70;;;10.20;;
70829;SDS011;58451;51.550;7.208;2023-02-03T00:55:48;18.20;;;8.90;;
70829;SDS011;58451;51.550;7.208;2023-02-03T00:57:20;19.90;;;9.00;;
70829;SDS011;58451;51.550;7.208;2023-02-03T00:58:52;17.70;;;8.00;;
70829;SDS011;58451;51.550;7.208;2023-02-03T01:00:24;19.20;;;8.40;;
70829;SDS011;58451;51.550;7.208;2023-02-03T01:01:58;23.70;;;10.80;;
70829;SDS011;58451;51.550;7.208;2023-02-03T01:03:30;27.00;;;10.60;;
70829;SDS011;58451;51.550;7.208;2023-02-03T01:05:02;21.90;;;10.10;;
70829;SDS011;58451;51.550;7.208;2023-02-03T01:06:34;21.80;;;9.10;;
70829;SDS011;58451;51.550;7.208;2023-02-03T01:08:07;18.20;;;8.30;;
70829;SDS011;58451;51.550;7.208;2023-02-03T01:09:39;20.20;;;8.50;;
70829;SDS011;58451;51.550;7.208;2023-02-03T01:11:20;22.80;;;10.70;;
70829;SDS011;58451;51.550;7.208;2023-02-03T01:12:53;23.40;;;10.10;;
70829;SDS011;58451;51.550;7.208;2023-02-03T01:14:31;23.10;;;10.70;;
70829;SDS011;58451;51.550;7.208;2023-02-03T01:16:06;24.10;;;10.80;;
70829;SDS011;58451;51.550;7.208;2023-02-03T01:17:44;20.80;;;10.70;;
70829;SDS011;58451;51.550;7.208;2023-02-03T01:19:23;22.70;;;10.50;;
70829;SDS011;58451;51.550;7.208;2023-02-03T01:20:56;25.20;;;10.90;;
70829;SDS011;58451;51.550;7.208;2023-02-03T01:22:30;20.70;;;10.10;;
70829;SDS011;58451;51.550;7.208;2023-02-03T01:24:02;26.40;;;11.00;;
70829;SDS011;58451;51.550;7.208;2023-02-03T01:25:34;23.90;;;10.50;;
70829;SDS011;58451;51.550;7.208;2023-02-03T01:27:06;19.10;;;8.50;;
70829;SDS011;58451;51.550;7.208;2023-02-03T01:28:38;21.40;;;8.90;;
70829;SDS011;58451;51.550;7.208;2023-02-03T01:30:11;23.80;;;9.80;;
70829;SDS011;58451;51.550;7.208;2023-02-03T01:31:43;19.80;;;9.70;;
70829;SDS011;58451;51.550;7.208;2023-02-03T01:33:15;18.50;;;8.60;;
70829;SDS011;58451;51.550;7.208;2023-02-03T01:34:47;17.10;;;8.30;;
70829;SDS011;58451;51.550;7.208;2023-02-03T01:36:20;24.50;;;12.00;;
70829;SDS011;58451;51.550;7.208;2023-02-03T01:37:54;24.90;;;10.00;;
70829;SDS011;58451;51.550;7.208;2023-02-03T01:39:26;25.50;;;11.20;;
70829;SDS011;58451;51.550;7.208;2023-02-03T01:40:58;28.00;;;10.90;;
70829;SDS011;58451;51.550;7.208;2023-02-03T01:42:32;22.40;;;10.40;;
70829;SDS011;58451;51.550;7.208;2023-02-03T01:46:29;24.90;;;10.40;;
70829;SDS011;58451;51.550;7.208;2023-02-03T01:48:18;22.50;;;10.00;;
70829;SDS011;58451;51.550;7.208;2023-02-03T01:51:42;24.20;;;10.50;;
70829;SDS011;58451;51.550;7.208;2023-02-03T01:53:20;26.50;;;11.00;;
70829;SDS011;58451;51.550;7.208;2023-02-03T01:55:03;23.90;;;10.30;;
70829;SDS011;58451;51.550;7.208;2023-02-03T01:56:47;27.10;;;10.60;;
70829;SDS011;58451;51.550;7.208;2023-02-03T01:58:38;25.40;;;10.40;;
70829;SDS011;58451;51.550;7.208;2023-02-03T02:00:13;24.90;;;12.10;;
70829;SDS011;58451;51.550;7.208;2023-02-03T02:01:49;28.80;;;11.20;;
70829;SDS011;58451;51.550;7.208;2023-02-03T02:03:39;21.70;;;9.90;;
70829;SDS011;58451;51.550;7.208;2023-02-03T02:05:29;30.50;;;12.90;;
70829;SDS011;58451;51.550;7.208;2023-02-03T02:07:03;24.60;;;12.10;;
70829;SDS011;58451;51.550;7.208;2023-02-03T02:08:36;24.70;;;11.10;;
70829;SDS011;58451;51.550;7.208;2023-02-03T02:10:10;23.00;;;11.20;;
70829;SDS011;58451;51.550;7.208;2023-02-03T02:11:45;23.20;;;10.20;;
70829;SDS011;58451;51.550;7.208;2023-02-03T02:13:21;17.10;;;8.60;;
70829;SDS011;58451;51.550;7.208;2023-02-03T02:14:55;22.60;;;10.90;;
70829;SDS011;58451;51.550;7.208;2023-02-03T02:19:05;19.90;;;9.00;;
70829;SDS011;58451;51.550;7.208;2023-02-03T02:28:48;21.30;;;9.10;;
70829;SDS011;58451;51.550;7.208;2023-02-03T02:34:37;16.80;;;7.60;;
70829;SDS011;58451;51.550;7.208;2023-02-03T02:36:42;20.50;;;8.80;;
70829;SDS011;58451;51.550;7.208;2023-02-03T02:44:34;21.50;;;9.00;;
70829;SDS011;58451;51.550;7.208;2023-02-03T02:46:13;21.90;;;9.20;;
70829;SDS011;58451;51.550;7.208;2023-02-03T02:48:00;23.40;;;9.30;;
70829;SDS011;58451;51.550;7.208;2023-02-03T02:50:27;22.20;;;9.90;;
70829;SDS011;58451;51.550;7.208;2023-02-03T02:51:38;18.20;;;9.10;;
70829;SDS011;58451;51.550;7.208;2023-02-03T02:53:13;17.40;;;8.30;;
70829;SDS011;58451;51.550;7.208;2023-02-03T02:54:55;18.10;;;8.00;;
70829;SDS011;58451;51.550;7.208;2023-02-03T02:56:33;20.10;;;8.40;;
70829;SDS011;58451;51.550;7.208;2023-02-03T02:58:14;19.50;;;7.50;;
70829;SDS011;58451;51.550;7.208;2023-02-03T02:59:52;16.70;;;7.90;;
70829;SDS011;58451;51.550;7.208;2023-02-03T03:01:27;20.50;;;8.50;;
70829;SDS011;58451;51.550;7.208;2023-02-03T03:03:13;19.50;;;8.20;;
70829;SDS011;58451;51.550;7.208;2023-02-03T03:04:49;15.70;;;7.90;;
70829;SDS011;58451;51.550;7.208;2023-02-03T03:06:35;18.00;;;7.40;;
70829;SDS011;58451;51.550;7.208;2023-02-03T03:08:15;17.30;;;7.70;;
70829;SDS011;58451;51.550;7.208;2023-02-03T03:10:05;16.70;;;7.10;;
70829;SDS011;58451;51.550;7.208;2023-02-03T03:11:47;18.70;;;8.40;;
70829;SDS011;58451;51.550;7.208;2023-02-03T03:13:26;20.00;;;7.90;;
70829;SDS011;58451;51.550;7.208;2023-02-03T03:15:18;19.40;;;8.60;;
70829;SDS011;58451;51.550;7.208;2023-02-03T03:17:01;17.40;;;7.60;;
70829;SDS011;58451;51.550;7.208;2023-02-03T03:18:50;13.90;;;6.10;;
70829;SDS011;58451;51.550;7.208;2023-02-03T03:20:35;15.90;;;6.70;;
70829;SDS011;58451;51.550;7.208;2023-02-03T03:22:14;14.30;;;7.00;;
70829;SDS011;58451;51.550;7.208;2023-02-03T03:23:50;19.10;;;7.20;;
70829;SDS011;58451;51.550;7.208;2023-02-03T03:25:35;18.70;;;7.50;;
70829;SDS011;58451;51.550;7.208;2023-02-03T03:29:29;11.30;;;5.00;;
70829;SDS011;58451;51.550;7.208;2023-02-03T03:31:08;15.20;;;5.80;;
70829;SDS011;58451;51.550;7.208;2023-02-03T03:32:41;12.20;;;4.40;;
70829;SDS011;58451;51.550;7.208;2023-02-03T03:34:15;15.20;;;6.00;;
70829;SDS011;58451;51.550;7.208;2023-02-03T03:35:49;15.80;;;6.50;;
70829;SDS011;58451;51.550;7.208;2023-02-03T03:37:37;12.60;;;4.70;;
70829;SDS011;58451;51.550;7.208;2023-02-03T03:39:32;16.30;;;5.40;;
70829;SDS011;58451;51.550;7.208;2023-02-03T03:41:16;16.50;;;5.00;;
70829;SDS011;58451;51.550;7.208;2023-02-03T03:43:09;13.10;;;5.20;;
70829;SDS011;58451;51.550;7.208;2023-02-03T03:45:10;14.90;;;5.90;;
70829;SDS011;58451;51.550;7.208;2023-02-03T03:46:49;11.60;;;5.00;;
70829;SDS011;58451;51.550;7.208;2023-02-03T03:48:48;13.70;;;4.60;;
70829;SDS011;58451;51.550;7.208;2023-02-03T03:50:36;19.50;;;6.30;;
70829;SDS011;58451;51.550;7.208;2023-02-03T03:52:18;13.20;;;4.30;;
70829;SDS011;58451;51.550;7.208;2023-02-03T03:53:59;12.00;;;4.50;;
70829;SDS011;58451;51.550;7.208;2023-02-03T03:55:35;12.70;;;5.10;;
70829;SDS011;58451;51.550;7.208;2023-02-03T03:57:20;14.30;;;5.00;;
70829;SDS011;58451;51.550;7.208;2023-02-03T03:58:58;11.50;;;4.10;;
70829;SDS011;58451;51.550;7.208;2023-02-03T04:00:34;12.00;;;4.50;;
70829;SDS011;58451;51.550;7.208;2023-02-03T04:02:08;14.90;;;4.60;;
70829;SDS011;58451;51.550;7.208;2023-02-03T04:03:48;10.80;;;4.30;;
70829;SDS011;58451;51.550;7.208;2023-02-03T04:05:23;11.70;;;4.40;;
70829;SDS011;58451;51.550;7.208;2023-02-03T04:06:56;11.50;;;4.10;;
70829;SDS011;58451;51.550;7.208;2023-02-03T04:08:28;12.50;;;4.70;;
70829;SDS011;58451;51.550;7.208;2023-02-03T04:10:01;12.60;;;4.60;;
70829;SDS011;58451;51.550;7.208;2023-02-03T04:11:37;11.70;;;3.10;;
70829;SDS011;58451;51.550;7.208;2023-02-03T04:13:28;12.20;;;4.40;;
70829;SDS011;58451;51.550;7.208;2023-02-03T04:14:59;12.40;;;4.40;;
70829;SDS011;58451;51.550;7.208;2023-02-03T04:16:31;13.70;;;4.10;;
70829;SDS011;58451;51.550;7.208;2023-02-03T04:18:04;12.70;;;4.50;;
70829;SDS011;58451;51.550;7.208;2023-02-03T04:19:36;11.70;;;3.90;;
70829;SDS011;58451;51.550;7.208;2023-02-03T04:21:08;13.90;;;4.10;;
70829;SDS011;58451;51.550;7.208;2023-02-03T04:22:41;15.50;;;3.80;;
70829;SDS011;58451;51.550;7.208;2023-02-03T04:24:13;11.90;;;4.60;;
70829;SDS011;58451;51.550;7.208;2023-02-03T04:25:44;11.20;;;3.90;;
70829;SDS011;58451;51.550;7.208;2023-02-03T04:27:16;9.20;;;3.80;;
70829;SDS011;58451;51.550;7.208;2023-02-03T04:28:48;12.20;;;3.70;;
70829;SDS011;58451;51.550;7.208;2023-02-03T04:30:20;11.70;;;4.50;;
70829;SDS011;58451;51.550;7.208;2023-02-03T04:31:51;11.40;;;3.90;;
70829;SDS011;58451;51.550;7.208;2023-02-03T04:33:23;11.20;;;3.40;;
70829;SDS011;58451;51.550;7.208;2023-02-03T04:34:56;10.60;;;4.00;;
70829;SDS011;58451;51.550;7.208;2023-02-03T04:36:29;11.90;;;4.40;;
70829;SDS011;58451;51.550;7.208;2023-02-03T04:38:01;12.00;;;3.90;;
70829;SDS011;58451;51.550;7.208;2023-02-03T04:39:32;14.70;;;4.20;;
70829;SDS011;58451;51.550;7.208;2023-02-03T04:41:04;11.30;;;4.40;;
70829;SDS011;58451;51.550;7.208;2023-02-03T04:42:37;8.20;;;2.70;;
70829;SDS011;58451;51.550;7.208;2023-02-03T04:44:10;11.30;;;4.00;;
70829;SDS011;58451;51.550;7.208;2023-02-03T04:45:41;14.50;;;4.20;;
70829;SDS011;58451;51.550;7.208;2023-02-03T04:47:14;12.40;;;4.30;;
70829;SDS011;58451;51.550;7.208;2023-02-03T04:48:46;10.40;;;3.90;;
70829;SDS011;58451;51.550;7.208;2023-02-03T04:50:18;12.20;;;4.00;;
70829;SDS011;58451;51.550;7.208;2023-02-03T04:51:50;9.50;;;3.50;;
70829;SDS011;58451;51.550;7.208;2023-02-03T04:53:22;10.10;;;3.30;;
70829;SDS011;58451;51.550;7.208;2023-02-03T04:54:54;11.30;;;3.30;;
70829;SDS011;58451;51.550;7.208;2023-02-03T04:56:26;14.20;;;3.90;;
70829;SDS011;58451;51.550;7.208;2023-02-03T04:57:58;8.90;;;2.70;;
70829;SDS011;58451;51.550;7.208;2023-02-03T04:59:31;10.60;;;3.60;;
70829;SDS011;58451;51.550;7.208;2023-02-03T05:01:07;11.40;;;3.80;;
70829;SDS011;58451;51.550;7.208;2023-02-03T05:02:40;12.20;;;4.10;;
70829;SDS011;58451;51.550;7.208;2023-02-03T05:04:11;11.30;;;3.10;;
70829;SDS011;58451;51.550;7.208;2023-02-03T05:05:43;8.90;;;3.20;;
70829;SDS011;58451;51.550;7.208;2023-02-03T05:07:15;11.90;;;3.80;;
70829;SDS011;58451;51.550;7.208;2023-02-03T05:08:47;13.00;;;4.00;;
70829;SDS011;58451;51.550;7.208;2023-02-03T05:10:19;9.20;;;3.30;;
70829;SDS011;58451;51.550;7.208;2023-02-03T05:11:51;12.50;;;3.90;;
70829;SDS011;58451;51.550;7.208;2023-02-03T05:13:23;10.40;;;3.80;;
70829;SDS011;58451;51.550;7.208;2023-02-03T05:14:55;7.80;;;2.70;;
70829;SDS011;58451;51.550;7.208;2023-02-03T05:16:27;8.90;;;3.10;;
70829;SDS011;58451;51.550;7.208;2023-02-03T05:17:58;13.50;;;3.70;;
70829;SDS011;58451;51.550;7.208;2023-02-03T05:19:30;12.80;;;3.50;;
70829;SDS011;58451;51.550;7.208;2023-02-03T05:21:02;11.20;;;3.50;;
70829;SDS011;58451;51.550;7.208;2023-02-03T05:22:34;9.80;;;3.50;;
70829;SDS011;58451;51.550;7.208;2023-02-03T05:24:06;11.20;;;4.10;;
70829;SDS011;58451;51.550;7.208;2023-02-03T05:25:38;9.90;;;3.50;;
70829;SDS011;58451;51.550;7.208;2023-02-03T05:27:10;11.50;;;3.60;;
70829;SDS011;58451;51.550;7.208;2023-02-03T05:28:41;13.70;;;4.10;;
70829;SDS011;58451;51.550;7.208;2023-02-03T05:30:13;9.50;;;3.10;;
70829;SDS011;58451;51.550;7.208;2023-02-03T05:31:45;8.80;;;3.00;;
70829;SDS011;58451;51.550;7.208;2023-02-03T05:33:17;10.30;;;3.10;;
70829;SDS011;58451;51.550;7.208;2023-02-03T05:34:49;11.20;;;3.20;;
70829;SDS011;58451;51.550;7.208;2023-02-03T05:36:20;9.00;;;3.20;;
70829;SDS011;58451;51.550;7.208;2023-02-03T05:37:52;10.20;;;2.90;;
70829;SDS011;58451;51.550;7.208;2023-02-03T05:39:24;9.10;;;3.00;;
70829;SDS011;58451;51.550;7.208;2023-02-03T05:40:56;9.30;;;2.90;;
70829;SDS011;58451;51.550;7.208;2023-02-03T05:42:47;10.40;;;2.70;;
70829;SDS011;58451;51.550;7.208;2023-02-03T05:44:21;12.70;;;3.60;;
70829;SDS011;58451;51.550;7.208;2023-02-03T05:45:54;11.60;;;3.10;;
70829;SDS011;58451;51.550;7.208;2023-02-03T05:47:29;10.40;;;3.00;;
70829;SDS011;58451;51.550;7.208;2023-02-03T05:49:01;11.30;;;3.00;;
70829;SDS011;58451;51.550;7.208;2023-02-03T05:50:33;11.10;;;2.50;;
70829;SDS011;58451;51.550;7.208;2023-02-03T05:52:12;9.40;;;2.90;;
70829;SDS011;58451;51.550;7.208;2023-02-03T05:53:43;11.00;;;2.60;;
70829;SDS011;58451;51.550;7.208;2023-02-03T05:55:15;10.30;;;2.80;;
70829;SDS011;58451;51.550;7.208;2023-02-03T05:56:47;10.70;;;2.80;;
70829;SDS011;58451;51.550;7.208;2023-02-03T05:58:19;11.30;;;2.50;;
70829;SDS011;58451;51.550;7.208;2023-02-03T05:59:51;9.30;;;2.30;;
70829;SDS011;58451;51.550;7.208;2023-02-03T06:01:22;9.10;;;2.60;;
70829;SDS011;58451;51.550;7.208;2023-02-03T06:02:57;10.50;;;2.70;;
70829;SDS011;58451;51.550;7.208;2023-02-03T06:04:31;9.90;;;3.10;;
70829;SDS011;58451;51.550;7.208;2023-02-03T06:06:03;8.80;;;2.50;;
70829;SDS011;58451;51.550;7.208;2023-02-03T06:07:34;10.30;;;2.50;;
70829;SDS011;58451;51.550;7.208;2023-02-03T06:09:07;7.40;;;2.30;;
70829;SDS011;58451;51.550;7.208;2023-02-03T06:10:39;11.50;;;2.60;;
70829;SDS011;58451;51.550;7.208;2023-02-03T06:12:11;9.50;;;2.50;;
70829;SDS011;58451;51.550;7.208;2023-02-03T06:13:43;8.80;;;3.00;;
70829;SDS011;58451;51.550;7.208;2023-02-03T06:15:15;8.80;;;2.60;;
70829;SDS011;58451;51.550;7.208;2023-02-03T06:16:47;9.30;;;2.70;;
70829;SDS011;58451;51.550;7.208;2023-02-03T06:18:19;9.60;;;2.70;;
70829;SDS011;58451;51.550;7.208;2023-02-03T06:19:51;10.00;;;2.40;;
70829;SDS011;58451;51.550;7.208;2023-02-03T06:21:23;10.60;;;2.80;;
70829;SDS011;58451;51.550;7.208;2023-02-03T06:22:55;9.00;;;2.00;;
70829;SDS011;58451;51.550;7.208;2023-02-03T06:24:27;10.90;;;1.80;;
70829;SDS011;58451;51.550;7.208;2023-02-03T06:25:59;11.30;;;2.40;;
70829;SDS011;58451;51.550;7.208;2023-02-03T06:27:31;8.80;;;2.00;;
70829;SDS011;58451;51.550;7.208;2023-02-03T06:29:03;8.30;;;2.00;;
70829;SDS011;58451;51.550;7.208;2023-02-03T06:30:34;9.40;;;2.50;;
70829;SDS011;58451;51.550;7.208;2023-02-03T06:32:07;11.20;;;2.60;;
70829;SDS011;58451;51.550;7.208;2023-02-03T06:33:39;9.70;;;2.50;;
70829;SDS011;58451;51.550;7.208;2023-02-03T06:35:11;10.70;;;2.60;;
70829;SDS011;58451;51.550;7.208;2023-02-03T06:36:43;8.20;;;2.30;;
70829;SDS011;58451;51.550;7.208;2023-02-03T06:38:15;9.00;;;2.80;;
70829;SDS011;58451;51.550;7.208;2023-02-03T06:39:47;7.30;;;1.90;;
70829;SDS011;58451;51.550;7.208;2023-02-03T06:41:18;10.20;;;2.80;;
70829;SDS011;58451;51.550;7.208;2023-02-03T06:42:50;10.80;;;3.00;;
70829;SDS011;58451;51.550;7.208;2023-02-03T06:44:22;8.90;;;2.20;;
70829;SDS011;58451;51.550;7.208;2023-02-03T06:45:54;12.80;;;2.40;;
70829;SDS011;58451;51.550;7.208;2023-02-03T06:47:26;12.40;;;2.70;;
70829;SDS011;58451;51.550;7.208;2023-02-03T06:48:58;7.90;;;2.50;;
70829;SDS011;58451;51.550;7.208;2023-02-03T06:50:30;12.10;;;3.00;;
70829;SDS011;58451;51.550;7.208;2023-02-03T06:52:01;9.20;;;3.00;;
70829;SDS011;58451;51.550;7.208;2023-02-03T06:53:33;10.60;;;2.80;;
70829;SDS011;58451;51.550;7.208;2023-02-03T06:55:05;7.70;;;2.30;;
70829;SDS011;58451;51.550;7.208;2023-02-03T06:56:38;13.10;;;3.20;;
70829;SDS011;58451;51.550;7.208;2023-02-03T06:58:10;8.70;;;2.40;;
70829;SDS011;58451;51.550;7.208;2023-02-03T06:59:41;9.60;;;3.10;;
70829;SDS011;58451;51.550;7.208;2023-02-03T07:01:13;11.20;;;3.40;;
70829;SDS011;58451;51.550;7.208;2023-02-03T07:02:45;11.20;;;3.20;;
70829;SDS011;58451;51.550;7.208;2023-02-03T07:04:23;12.00;;;3.40;;
70829;SDS011;58451;51.550;7.208;2023-02-03T07:05:55;10.40;;;2.40;;
70829;SDS011;58451;51.550;7.208;2023-02-03T07:07:27;12.60;;;4.10;;
70829;SDS011;58451;51.550;7.208;2023-02-03T07:09:00;11.80;;;3.90;;
70829;SDS011;58451;51.550;7.208;2023-02-03T07:10:33;11.30;;;3.70;;
70829;SDS011;58451;51.550;7.208;2023-02-03T07:12:07;9.60;;;3.10;;
70829;SDS011;58451;51.550;7.208;2023-02-03T07:13:39;10.70;;;3.50;;
70829;SDS011;58451;51.550;7.208;2023-02-03T07:15:11;13.80;;;4.60;;
70829;SDS011;58451;51.550;7.208;2023-02-03T07:16:43;10.40;;;3.60;;
70829;SDS011;58451;51.550;7.208;2023-02-03T07:18:15;13.50;;;3.70;;
70829;SDS011;58451;51.550;7.208;2023-02-03T07:20:08;12.80;;;3.90;;
70829;SDS011;58451;51.550;7.208;2023-02-03T07:21:40;12.90;;;4.10;;
70829;SDS011;58451;51.550;7.208;2023-02-03T07:23:12;10.70;;;3.30;;
70829;SDS011;58451;51.550;7.208;2023-02-03T07:24:44;9.90;;;2.90;;
70829;SDS011;58451;51.550;7.208;2023-02-03T07:26:16;11.70;;;3.50;;
70829;SDS011;58451;51.550;7.208;2023-02-03T07:27:49;11.50;;;3.20;;
70829;SDS011;58451;51.550;7.208;2023-02-03T07:29:21;13.50;;;3.80;;
70829;SDS011;58451;51.550;7.208;2023-02-03T07:30:53;11.20;;;3.30;;
70829;SDS011;58451;51.550;7.208;2023-02-03T07:32:25;8.40;;;3.20;;
70829;SDS011;58451;51.550;7.208;2023-02-03T07:33:57;13.00;;;3.70;;
70829;SDS011;58451;51.550;7.208;2023-02-03T07:35:29;10.10;;;3.10;;
70829;SDS011;58451;51.550;7.208;2023-02-03T07:37:00;12.80;;;3.00;;
70829;SDS011;58451;51.550;7.208;2023-02-03T07:38:32;11.30;;;3.30;;
70829;SDS011;58451;51.550;7.208;2023-02-03T07:40:04;10.70;;;4.40;;
70829;SDS011;58451;51.550;7.208;2023-02-03T07:41:36;10.10;;;3.60;;
70829;SDS011;58451;51.550;7.208;2023-02-03T07:43:08;8.90;;;2.90;;
70829;SDS011;58451;51.550;7.208;2023-02-03T07:44:40;11.80;;;3.60;;
70829;SDS011;58451;51.550;7.208;2023-02-03T07:46:11;9.00;;;3.10;;
70829;SDS011;58451;51.550;7.208;2023-02-03T07:47:44;12.80;;;3.90;;
70829;SDS011;58451;51.550;7.208;2023-02-03T07:49:15;16.70;;;3.50;;
70829;SDS011;58451;51.550;7.208;2023-02-03T07:50:47;8.80;;;3.20;;
70829;SDS011;58451;51.550;7.208;2023-02-03T07:52:21;11.10;;;3.20;;
70829;SDS011;58451;51.550;7.208;2023-02-03T07:53:52;11.60;;;2.90;;
70829;SDS011;58451;51.550;7.208;2023-02-03T07:55:24;11.00;;;3.30;;
70829;SDS011;58451;51.550;7.208;2023-02-03T07:56:57;8.60;;;2.90;;
70829;SDS011;58451;51.550;7.208;2023-02-03T07:58:29;10.10;;;3.00;;
70829;SDS011;58451;51.550;7.208;2023-02-03T08:00:03;8.80;;;3.00;;
70829;SDS011;58451;51.550;7.208;2023-02-03T08:01:42;12.00;;;2.90;;
70829;SDS011;58451;51.550;7.208;2023-02-03T08:03:14;11.50;;;2.60;;
70829;SDS011;58451;51.550;7.208;2023-02-03T08:04:46;10.20;;;2.70;;
70829;SDS011;58451;51.550;7.208;2023-02-03T08:06:18;12.30;;;2.80;;
70829;SDS011;58451;51.550;7.208;2023-02-03T08:07:49;7.90;;;2.30;;
70829;SDS011;58451;51.550;7.208;2023-02-03T08:09:21;10.20;;;3.00;;
70829;SDS011;58451;51.550;7.208;2023-02-03T08:10:56;9.20;;;2.50;;
70829;SDS011;58451;51.550;7.208;2023-02-03T08:12:28;9.90;;;2.30;;
70829;SDS011;58451;51.550;7.208;2023-02-03T08:13:59;10.90;;;2.90;;
70829;SDS011;58451;51.550;7.208;2023-02-03T08:15:31;9.80;;;3.00;;
70829;SDS011;58451;51.550;7.208;2023-02-03T08:17:03;11.50;;;2.80;;
70829;SDS011;58451;51.550;7.208;2023-02-03T08:18:35;8.90;;;2.90;;
70829;SDS011;58451;51.550;7.208;2023-02-03T08:20:08;10.90;;;3.20;;
70829;SDS011;58451;51.550;7.208;2023-02-03T08:21:40;11.00;;;3.10;;
70829;SDS011;58451;51.550;7.208;2023-02-03T08:23:12;7.60;;;2.40;;
70829;SDS011;58451;51.550;7.208;2023-02-03T08:24:45;10.00;;;2.20;;
70829;SDS011;58451;51.550;7.208;2023-02-03T08:26:17;7.00;;;1.70;;
70829;SDS011;58451;51.550;7.208;2023-02-03T08:27:49;4.40;;;1.50;;
70829;SDS011;58451;51.550;7.208;2023-02-03T08:29:21;10.10;;;2.70;;
70829;SDS011;58451;51.550;7.208;2023-02-03T08:30:52;9.00;;;2.30;;
70829;SDS011;58451;51.550;7.208;2023-02-03T08:32:25;7.80;;;2.30;;
70829;SDS011;58451;51.550;7.208;2023-02-03T08:33:57;10.90;;;2.10;;
70829;SDS011;58451;51.550;7.208;2023-02-03T08:35:29;8.50;;;2.00;;
70829;SDS011;58451;51.550;7.208;2023-02-03T08:37:01;8.10;;;2.10;;
70829;SDS011;58451;51.550;7.208;2023-02-03T08:38:33;9.30;;;2.20;;
70829;SDS011;58451;51.550;7.208;2023-02-03T08:40:05;10.40;;;2.30;;
70829;SDS011;58451;51.550;7.208;2023-02-03T08:41:37;8.40;;;2.10;;
70829;SDS011;58451;51.550;7.208;2023-02-03T08:43:09;5.80;;;1.70;;
70829;SDS011;58451;51.550;7.208;2023-02-03T08:44:41;11.60;;;2.60;;
70829;SDS011;58451;51.550;7.208;2023-02-03T08:46:14;9.90;;;2.50;;
70829;SDS011;58451;51.550;7.208;2023-02-03T08:47:46;7.10;;;1.60;;
70829;SDS011;58451;51.550;7.208;2023-02-03T08:49:19;8.80;;;2.30;;
70829;SDS011;58451;51.550;7.208;2023-02-03T08:50:51;9.70;;;2.20;;
70829;SDS011;58451;51.550;7.208;2023-02-03T08:52:23;8.70;;;2.00;;
70829;SDS011;58451;51.550;7.208;2023-02-03T08:53:55;9.60;;;2.10;;
70829;SDS011;58451;51.550;7.208;2023-02-03T08:55:27;8.10;;;2.40;;
70829;SDS011;58451;51.550;7.208;2023-02-03T08:56:59;8.50;;;2.00;;
70829;SDS011;58451;51.550;7.208;2023-02-03T08:58:30;9.00;;;2.30;;
70829;SDS011;58451;51.550;7.208;2023-02-03T09:00:06;10.30;;;2.30;;
70829;SDS011;58451;51.550;7.208;2023-02-03T09:01:40;12.00;;;2.10;;
70829;SDS011;58451;51.550;7.208;2023-02-03T09:03:15;5.00;;;1.30;;
70829;SDS011;58451;51.550;7.208;2023-02-03T09:04:47;8.70;;;2.20;;
70829;SDS011;58451;51.550;7.208;2023-02-03T09:06:19;6.50;;;1.50;;
70829;SDS011;58451;51.550;7.208;2023-02-03T09:07:55;8.80;;;2.50;;
70829;SDS011;58451;51.550;7.208;2023-02-03T09:09:27;8.50;;;2.20;;
70829;SDS011;58451;51.550;7.208;2023-02-03T09:10:59;10.10;;;2.10;;
70829;SDS011;58451;51.550;7.208;2023-02-03T09:12:31;10.40;;;2.00;;
70829;SDS011;58451;51.550;7.208;2023-02-03T09:14:03;10.20;;;2.30;;
70829;SDS011;58451;51.550;7.208;2023-02-03T09:15:37;9.40;;;2.20;;
70829;SDS011;58451;51.550;7.208;2023-02-03T09:17:09;9.00;;;2.30;;
70829;SDS011;58451;51.550;7.208;2023-02-03T09:18:42;11.30;;;2.20;;
70829;SDS011;58451;51.550;7.208;2023-02-03T09:20:14;6.70;;;2.20;;
70829;SDS011;58451;51.550;7.208;2023-02-03T09:21:46;8.10;;;2.10;;
70829;SDS011;58451;51.550;7.208;2023-02-03T09:23:20;8.80;;;2.60;;
70829;SDS011;58451;51.550;7.208;2023-02-03T09:24:51;9.20;;;2.20;;
70829;SDS011;58451;51.550;7.208;2023-02-03T09:26:23;10.00;;;2.30;;
70829;SDS011;58451;51.550;7.208;2023-02-03T09:27:55;9.40;;;2.40;;
70829;SDS011;58451;51.550;7.208;2023-02-03T09:29:27;10.80;;;2.40;;
70829;SDS011;58451;51.550;7.208;2023-02-03T09:31:03;8.00;;;2.00;;
70829;SDS011;58451;51.550;7.208;2023-02-03T09:32:40;8.70;;;2.60;;
70829;SDS011;58451;51.550;7.208;2023-02-03T09:34:12;9.70;;;2.50;;
70829;SDS011;58451;51.550;7.208;2023-02-03T09:35:51;10.50;;;2.70;;
70829;SDS011;58451;51.550;7.208;2023-02-03T09:37:24;10.80;;;2.50;;
70829;SDS011;58451;51.550;7.208;2023-02-03T09:38:56;9.20;;;2.40;;
70829;SDS011;58451;51.550;7.208;2023-02-03T09:40:33;10.70;;;2.70;;
70829;SDS011;58451;51.550;7.208;2023-02-03T09:42:54;9.50;;;2.50;;
70829;SDS011;58451;51.550;7.208;2023-02-03T09:45:00;7.60;;;1.90;;
70829;SDS011;58451;51.550;7.208;2023-02-03T09:46:44;8.50;;;2.40;;
70829;SDS011;58451;51.550;7.208;2023-02-03T09:48:26;7.50;;;2.50;;
70829;SDS011;58451;51.550;7.208;2023-02-03T09:50:13;8.80;;;1.80;;